sensor_id;sensor_type;location;lat;lon;timestamp;temperature;humidity
5415;DHT22;2730;51.512;7.504;2022-10-15T05:02:32;12.30;99.90
5415;DHT22;2730;51.512;7.504;2022-10-15T05:04:59;12.30;99.90
5415;DHT22;2730;51.512;7.504;2022-10-15T05:07:26;12.40;99.90
5415;DHT22;2730;51.512;7.504;2022-10-15T05:09:53;12.40;99.90
5415;DHT22;2730;51.512;7.504;2022-10-15T05:12:19;12.40;99.90
5415;DHT22;2730;51.512;7.504;2022-10-15T05:14:46;12.40;99.90
5415;DHT22;2730;51.512;7.504;2022-10-15T05:17:13;12.50;99.90
5415;DHT22;2730;51.512;7.504;2022-10-15T05:19:41;12.50;99.90
5415;DHT22;2730;51.512;7.504;2022-10-15T05:22:08;12.50;99.90
5415;DHT22;2730;51.512;7.504;2022-10-15T05:24:35;12.50;99.90
5415;DHT22;2730;51.512;7.504;2022-10-15T05:27:02;12.60;99.90
5415;DHT22;2730;51.512;7.504;2022-10-15T05:29:29;12.50;99.90
5415;DHT22;2730;51.512;7.504;2022-10-15T05:31:55;12.50;99.90
5415;DHT22;2730;51.512;7.504;2022-10-15T05:34:22;12.50;99.90
5415;DHT22;2730;51.512;7.504;2022-10-15T05:36:52;12.50;99.90
5415;DHT22;2730;51.512;7.504;2022-10-15T05:39:19;12.50;99.90
5415;DHT22;2730;51.512;7.504;2022-10-15T05:41:48;12.60;99.90
5415;DHT22;2730;51.512;7.504;2022-10-15T05:44:15;12.60;99.90
5415;DHT22;2730;51.512;7.504;2022-10-15T05:46:44;12.50;99.90
5415;DHT22;2730;51.512;7.504;2022-10-15T05:49:10;12.50;99.90
5415;DHT22;2730;51.512;7.504;2022-10-15T05:51:38;12.40;99.90
5415;DHT22;2730;51.512;7.504;2022-10-15T05:54:06;12.30;99.90
5415;DHT22;2730;51.512;7.504;2022-10-15T05:56:34;12.20;99.90
5415;DHT22;2730;51.512;7.504;2022-10-15T05:59:01;12.20;99.90
5415;DHT22;2730;51.512;7.504;2022-10-15T06:01:52;12.10;99.90
5415;DHT22;2730;51.512;7.504;2022-10-15T06:04:20;11.90;99.90
5415;DHT22;2730;51.512;7.504;2022-10-15T06:06:48;11.90;99.90
5415;DHT22;2730;51.512;7.504;2022-10-15T06:09:18;11.90;99.90
5415;DHT22;2730;51.512;7.504;2022-10-15T06:11:51;11.80;99.90
5415;DHT22;2730;51.512;7.504;2022-10-15T06:14:32;11.80;99.90
5415;DHT22;2730;51.512;7.504;2022-10-15T06:16:59;11.80;99.90
5415;DHT22;2730;51.512;7.504;2022-10-15T06:19:26;12.00;99.90
5415;DHT22;2730;51.512;7.504;2022-10-15T06:21:54;12.20;99.90
5415;DHT22;2730;51.512;7.504;2022-10-15T06:24:22;12.40;99.90
5415;DHT22;2730;51.512;7.504;2022-10-15T06:26:49;12.60;99.90
5415;DHT22;2730;51.512;7.504;2022-10-15T06:29:16;12.80;99.90
5415;DHT22;2730;51.512;7.504;2022-10-15T06:31:43;12.90;99.90
5415;DHT22;2730;51.512;7.504;2022-10-15T06:34:10;13.00;99.90
5415;DHT22;2730;51.512;7.504;2022-10-15T06:36:37;13.00;99.90
5415;DHT22;2730;51.512;7.504;2022-10-15T06:39:04;13.10;99.90
5415;DHT22;2730;51.512;7.504;2022-10-15T06:41:32;13.20;99.90
5415;DHT22;2730;51.512;7.504;2022-10-15T06:44:00;13.10;99.90
5415;DHT22;2730;51.512;7.504;2022-10-15T06:46:26;13.20;99.90
5415;DHT22;2730;51.512;7.504;2022-10-15T06:48:53;13.30;99.90
5415;DHT22;2730;51.512;7.504;2022-10-15T06:51:21;13.30;99.90
5415;DHT22;2730;51.512;7.504;2022-10-15T06:53:48;13.30;99.90
5415;DHT22;2730;51.512;7.504;2022-10-15T06:56:15;13.40;99.90
5415;DHT22;2730;51.512;7.504;2022-10-15T06:58:43;13.40;99.90
5415;DHT22;2730;51.512;7.504;2022-10-15T07:01:10;13.40;99.90
5415;DHT22;2730;51.512;7.504;2022-10-15T07:03:37;13.50;99.90
5415;DHT22;2730;51.512;7.504;2022-10-15T07:06:07;13.50;99.90
5415;DHT22;2730;51.512;7.504;2022-10-15T07:08:35;13.60;99.90
5415;DHT22;2730;51.512;7.504;2022-10-15T07:11:03;13.60;99.90
5415;DHT22;2730;51.512;7.504;2022-10-15T07:13:31;13.70;99.90
5415;DHT22;2730;51.512;7.504;2022-10-15T07:16:04;13.70;99.90
5415;DHT22;2730;51.512;7.504;2022-10-15T07:18:31;13.80;99.90
5415;DHT22;2730;51.512;7.504;2022-10-15T07:20:58;13.90;99.90
5415;DHT22;2730;51.512;7.504;2022-10-15T07:23:26;14.00;99.90
5415;DHT22;2730;51.512;7.504;2022-10-15T07:25:53;14.20;99.90
5415;DHT22;2730;51.512;7.504;2022-10-15T07:28:20;14.30;99.90
5415;DHT22;2730;51.512;7.504;2022-10-15T07:30:46;14.30;99.90
5415;DHT22;2730;51.512;7.504;2022-10-15T07:33:14;14.40;99.90
5415;DHT22;2730;51.512;7.504;2022-10-15T07:35:41;14.50;99.90
5415;DHT22;2730;51.512;7.504;2022-10-15T07:38:08;14.60;99.90
5415;DHT22;2730;51.512;7.504;2022-10-15T07:40:35;14.70;99.90
5415;DHT22;2730;51.512;7.504;2022-10-15T07:43:05;14.80;99.90
5415;DHT22;2730;51.512;7.504;2022-10-15T07:45:38;14.70;99.90
5415;DHT22;2730;51.512;7.504;2022-10-15T07:48:06;14.80;99.90
5415;DHT22;2730;51.512;7.504;2022-10-15T07:50:36;14.80;99.90
5415;DHT22;2730;51.512;7.504;2022-10-15T07:53:07;14.90;99.90
5415;DHT22;2730;51.512;7.504;2022-10-15T07:55:35;15.00;99.90
5415;DHT22;2730;51.512;7.504;2022-10-15T07:58:04;15.10;99.90
5415;DHT22;2730;51.512;7.504;2022-10-15T08:00:33;15.20;99.90
5415;DHT22;2730;51.512;7.504;2022-10-15T08:02:59;15.40;99.90
5415;DHT22;2730;51.512;7.504;2022-10-15T08:05:27;15.50;99.90
5415;DHT22;2730;51.512;7.504;2022-10-15T08:07:56;15.60;99.90
5415;DHT22;2730;51.512;7.504;2022-10-15T08:10:40;15.60;99.90
5415;DHT22;2730;51.512;7.504;2022-10-15T08:13:07;15.70;99.90
5415;DHT22;2730;51.512;7.504;2022-10-15T08:15:38;15.90;99.90
5415;DHT22;2730;51.512;7.504;2022-10-15T08:18:05;16.00;99.90
5415;DHT22;2730;51.512;7.504;2022-10-15T08:20:32;16.20;99.90
5415;DHT22;2730;51.512;7.504;2022-10-15T08:23:00;16.40;99.90
5415;DHT22;2730;51.512;7.504;2022-10-15T08:25:27;16.60;99.90
5415;DHT22;2730;51.512;7.504;2022-10-15T08:27:57;16.80;99.90
5415;DHT22;2730;51.512;7.504;2022-10-15T08:30:24;16.80;99.90
5415;DHT22;2730;51.512;7.504;2022-10-15T08:32:51;17.10;99.90
5415;DHT22;2730;51.512;7.504;2022-10-15T08:35:18;17.80;99.90
5415;DHT22;2730;51.512;7.504;2022-10-15T08:37:44;18.10;99.90
5415;DHT22;2730;51.512;7.504;2022-10-15T08:40:14;18.90;99.90
5415;DHT22;2730;51.512;7.504;2022-10-15T08:42:44;19.10;99.90
5415;DHT22;2730;51.512;7.504;2022-10-15T08:45:15;19.00;99.90
5415;DHT22;2730;51.512;7.504;2022-10-15T08:47:45;19.20;99.90
5415;DHT22;2730;51.512;7.504;2022-10-15T08:50:22;19.10;99.90
5415;DHT22;2730;51.512;7.504;2022-10-15T08:52:53;19.00;99.90
5415;DHT22;2730;51.512;7.504;2022-10-15T08:55:22;18.80;99.90
5415;DHT22;2730;51.512;7.504;2022-10-15T08:57:53;18.50;99.90
5415;DHT22;2730;51.512;7.504;2022-10-15T09:00:23;18.30;99.90
5415;DHT22;2730;51.512;7.504;2022-10-15T09:02:57;18.10;99.90
5415;DHT22;2730;51.512;7.504;2022-10-15T09:05:35;17.60;99.90
5415;DHT22;2730;51.512;7.504;2022-10-15T09:08:13;17.20;99.90
5415;DHT22;2730;51.512;7.504;2022-10-15T09:10:47;17.00;99.90
5415;DHT22;2730;51.512;7.504;2022-10-15T09:13:20;17.00;99.90
5415;DHT22;2730;51.512;7.504;2022-10-15T09:15:51;17.50;99.90
5415;DHT22;2730;51.512;7.504;2022-10-15T09:18:22;17.80;99.90
5415;DHT22;2730;51.512;7.504;2022-10-15T09:20:49;18.10;99.90
5415;DHT22;2730;51.512;7.504;2022-10-15T09:23:19;18.90;99.90
5415;DHT22;2730;51.512;7.504;2022-10-15T09:25:51;19.70;99.90
5415;DHT22;2730;51.512;7.504;2022-10-15T09:28:24;20.70;99.90
5415;DHT22;2730;51.512;7.504;2022-10-15T09:30:54;21.50;99.90
5415;DHT22;2730;51.512;7.504;2022-10-15T09:33:31;21.90;99.90
5415;DHT22;2730;51.512;7.504;2022-10-15T09:38:55;22.40;99.90
5415;DHT22;2730;51.512;7.504;2022-10-15T09:41:31;22.20;99.90
5415;DHT22;2730;51.512;7.504;2022-10-15T09:43:59;22.10;99.90
5415;DHT22;2730;51.512;7.504;2022-10-15T09:46:27;22.10;99.90
5415;DHT22;2730;51.512;7.504;2022-10-15T09:49:02;22.60;99.90
5415;DHT22;2730;51.512;7.504;2022-10-15T09:51:35;22.90;99.90
5415;DHT22;2730;51.512;7.504;2022-10-15T09:54:10;23.20;99.90
5415;DHT22;2730;51.512;7.504;2022-10-15T09:56:44;23.00;99.90
5415;DHT22;2730;51.512;7.504;2022-10-15T09:59:15;22.40;99.90
5415;DHT22;2730;51.512;7.504;2022-10-15T10:01:55;22.10;99.90
5415;DHT22;2730;51.512;7.504;2022-10-15T10:04:25;22.60;99.90
5415;DHT22;2730;51.512;7.504;2022-10-15T10:06:54;23.00;99.90
5415;DHT22;2730;51.512;7.504;2022-10-15T10:09:24;23.40;99.90
5415;DHT22;2730;51.512;7.504;2022-10-15T10:11:55;23.50;99.90
5415;DHT22;2730;51.512;7.504;2022-10-15T10:14:26;22.80;99.90
5415;DHT22;2730;51.512;7.504;2022-10-15T10:17:15;21.60;99.90
5415;DHT22;2730;51.512;7.504;2022-10-15T10:19:42;20.80;99.90
5415;DHT22;2730;51.512;7.504;2022-10-15T10:22:15;20.40;99.90
5415;DHT22;2730;51.512;7.504;2022-10-15T10:24:43;20.20;99.90
5415;DHT22;2730;51.512;7.504;2022-10-15T10:27:20;19.60;99.90
5415;DHT22;2730;51.512;7.504;2022-10-15T10:29:53;19.20;99.90
5415;DHT22;2730;51.512;7.504;2022-10-15T10:32:22;19.00;99.90
5415;DHT22;2730;51.512;7.504;2022-10-15T10:34:53;18.90;99.90
5415;DHT22;2730;51.512;7.504;2022-10-15T10:37:20;18.80;99.90
5415;DHT22;2730;51.512;7.504;2022-10-15T10:39:52;18.80;99.90
5415;DHT22;2730;51.512;7.504;2022-10-15T10:42:27;18.70;99.90
5415;DHT22;2730;51.512;7.504;2022-10-15T10:45:13;18.60;99.90
5415;DHT22;2730;51.512;7.504;2022-10-15T10:47:40;18.50;99.90
5415;DHT22;2730;51.512;7.504;2022-10-15T10:50:29;18.40;99.90
5415;DHT22;2730;51.512;7.504;2022-10-15T10:52:56;18.20;99.90
5415;DHT22;2730;51.512;7.504;2022-10-15T10:55:32;18.10;99.90
5415;DHT22;2730;51.512;7.504;2022-10-15T10:58:04;18.30;99.90
5415;DHT22;2730;51.512;7.504;2022-10-15T11:00:36;18.30;99.90
5415;DHT22;2730;51.512;7.504;2022-10-15T11:03:05;18.30;99.90
5415;DHT22;2730;51.512;7.504;2022-10-15T11:05:39;18.40;99.90
5415;DHT22;2730;51.512;7.504;2022-10-15T11:08:11;18.40;99.90
5415;DHT22;2730;51.512;7.504;2022-10-15T11:10:46;18.60;99.90
5415;DHT22;2730;51.512;7.504;2022-10-15T11:13:29;18.70;99.90
5415;DHT22;2730;51.512;7.504;2022-10-15T11:16:02;18.60;99.90
5415;DHT22;2730;51.512;7.504;2022-10-15T11:18:47;18.50;99.90
5415;DHT22;2730;51.512;7.504;2022-10-15T11:21:26;18.50;99.90
5415;DHT22;2730;51.512;7.504;2022-10-15T11:24:09;18.50;99.90
5415;DHT22;2730;51.512;7.504;2022-10-15T11:26:47;18.50;99.90
5415;DHT22;2730;51.512;7.504;2022-10-15T11:29:23;18.40;99.90
5415;DHT22;2730;51.512;7.504;2022-10-15T11:31:59;18.20;99.90
5415;DHT22;2730;51.512;7.504;2022-10-15T11:34:41;18.10;99.90
5415;DHT22;2730;51.512;7.504;2022-10-15T11:37:24;18.00;99.90
5415;DHT22;2730;51.512;7.504;2022-10-15T11:40:08;18.00;99.90
5415;DHT22;2730;51.512;7.504;2022-10-15T11:42:41;17.90;99.90
5415;DHT22;2730;51.512;7.504;2022-10-15T11:45:41;18.10;99.90
5415;DHT22;2730;51.512;7.504;2022-10-15T11:48:14;18.40;99.90
5415;DHT22;2730;51.512;7.504;2022-10-15T11:50:45;18.70;99.90
5415;DHT22;2730;51.512;7.504;2022-10-15T11:53:38;18.90;99.90
5415;DHT22;2730;51.512;7.504;2022-10-15T11:56:13;19.00;99.90
5415;DHT22;2730;51.512;7.504;2022-10-15T11:58:44;19.20;99.90
5415;DHT22;2730;51.512;7.504;2022-10-15T12:01:19;19.20;99.90
5415;DHT22;2730;51.512;7.504;2022-10-15T12:03:52;19.20;99.90
5415;DHT22;2730;51.512;7.504;2022-10-15T12:06:21;19.30;99.90
5415;DHT22;2730;51.512;7.504;2022-10-15T12:08:51;19.30;99.90
5415;DHT22;2730;51.512;7.504;2022-10-15T12:11:26;19.30;99.90
5415;DHT22;2730;51.512;7.504;2022-10-15T12:13:57;19.20;99.90
5415;DHT22;2730;51.512;7.504;2022-10-15T12:16:34;19.20;99.90
5415;DHT22;2730;51.512;7.504;2022-10-15T12:19:11;19.10;99.90
5415;DHT22;2730;51.512;7.504;2022-10-15T12:21:43;19.20;99.90
5415;DHT22;2730;51.512;7.504;2022-10-15T12:24:53;19.20;99.90
5415;DHT22;2730;51.512;7.504;2022-10-15T12:27:23;19.20;99.90
5415;DHT22;2730;51.512;7.504;2022-10-15T12:29:52;19.20;99.90
5415;DHT22;2730;51.512;7.504;2022-10-15T12:32:40;19.20;99.90
5415;DHT22;2730;51.512;7.504;2022-10-15T12:35:19;19.20;99.90
5415;DHT22;2730;51.512;7.504;2022-10-15T12:37:47;19.20;99.90
5415;DHT22;2730;51.512;7.504;2022-10-15T12:40:27;19.20;99.90
5415;DHT22;2730;51.512;7.504;2022-10-15T12:42:56;19.20;99.90
5415;DHT22;2730;51.512;7.504;2022-10-15T12:45:29;19.20;99.90
5415;DHT22;2730;51.512;7.504;2022-10-15T12:48:26;19.10;99.90
5415;DHT22;2730;51.512;7.504;2022-10-15T12:54:36;19.20;99.90
5415;DHT22;2730;51.512;7.504;2022-10-15T13:00:28;19.00;99.90
5415;DHT22;2730;51.512;7.504;2022-10-15T13:02:56;19.10;99.90
5415;DHT22;2730;51.512;7.504;2022-10-15T13:05:29;19.10;99.90
5415;DHT22;2730;51.512;7.504;2022-10-15T13:07:58;19.20;99.90
5415;DHT22;2730;51.512;7.504;2022-10-15T13:10:28;19.20;99.90
5415;DHT22;2730;51.512;7.504;2022-10-15T13:12:58;19.30;99.90
5415;DHT22;2730;51.512;7.504;2022-10-15T13:15:28;19.30;99.90
5415;DHT22;2730;51.512;7.504;2022-10-15T13:17:57;19.40;99.90
5415;DHT22;2730;51.512;7.504;2022-10-15T13:20:32;19.50;99.90
5415;DHT22;2730;51.512;7.504;2022-10-15T13:23:10;19.40;99.90
5415;DHT22;2730;51.512;7.504;2022-10-15T13:25:42;19.40;99.90
5415;DHT22;2730;51.512;7.504;2022-10-15T13:28:28;19.30;99.90
5415;DHT22;2730;51.512;7.504;2022-10-15T13:30:55;19.40;99.90
5415;DHT22;2730;51.512;7.504;2022-10-15T13:33:22;19.40;99.90
5415;DHT22;2730;51.512;7.504;2022-10-15T13:35:50;19.40;99.90
5415;DHT22;2730;51.512;7.504;2022-10-15T13:38:20;19.40;99.90
5415;DHT22;2730;51.512;7.504;2022-10-15T13:40:48;19.50;99.90
5415;DHT22;2730;51.512;7.504;2022-10-15T13:43:17;19.50;99.90
5415;DHT22;2730;51.512;7.504;2022-10-15T13:45:48;19.50;99.90
5415;DHT22;2730;51.512;7.504;2022-10-15T13:48:19;19.40;99.90
5415;DHT22;2730;51.512;7.504;2022-10-15T13:50:50;19.40;99.90
5415;DHT22;2730;51.512;7.504;2022-10-15T13:53:22;19.40;99.90
5415;DHT22;2730;51.512;7.504;2022-10-15T13:55:53;19.40;99.90
5415;DHT22;2730;51.512;7.504;2022-10-15T13:58:22;19.40;99.90
5415;DHT22;2730;51.512;7.504;2022-10-15T14:00:52;19.50;99.90
5415;DHT22;2730;51.512;7.504;2022-10-15T14:03:22;19.40;99.90
5415;DHT22;2730;51.512;7.504;2022-10-15T14:05:51;19.30;99.90
5415;DHT22;2730;51.512;7.504;2022-10-15T14:08:22;19.40;99.90
5415;DHT22;2730;51.512;7.504;2022-10-15T14:10:51;19.40;99.90
5415;DHT22;2730;51.512;7.504;2022-10-15T14:13:18;19.40;99.90
5415;DHT22;2730;51.512;7.504;2022-10-15T14:15:57;19.30;99.90
5415;DHT22;2730;51.512;7.504;2022-10-15T14:18:32;19.10;99.90
5415;DHT22;2730;51.512;7.504;2022-10-15T14:21:01;19.20;99.90
5415;DHT22;2730;51.512;7.504;2022-10-15T14:23:28;19.20;99.90
5415;DHT22;2730;51.512;7.504;2022-10-15T14:25:58;19.20;99.90
5415;DHT22;2730;51.512;7.504;2022-10-15T14:28:27;19.20;99.90
5415;DHT22;2730;51.512;7.504;2022-10-15T14:30:55;19.00;99.90
5415;DHT22;2730;51.512;7.504;2022-10-15T14:33:34;19.00;99.90
5415;DHT22;2730;51.512;7.504;2022-10-15T14:36:10;18.90;99.90
5415;DHT22;2730;51.512;7.504;2022-10-15T14:38:37;18.90;99.90
5415;DHT22;2730;51.512;7.504;2022-10-15T14:41:17;19.00;99.90
5415;DHT22;2730;51.512;7.504;2022-10-15T14:43:44;18.90;99.90
5415;DHT22;2730;51.512;7.504;2022-10-15T14:46:15;18.80;99.90
5415;DHT22;2730;51.512;7.504;2022-10-15T14:48:43;18.80;99.90
5415;DHT22;2730;51.512;7.504;2022-10-15T14:51:18;18.70;99.90
5415;DHT22;2730;51.512;7.504;2022-10-15T14:53:46;18.70;99.90
5415;DHT22;2730;51.512;7.504;2022-10-15T14:56:15;18.70;99.90
5415;DHT22;2730;51.512;7.504;2022-10-15T14:58:46;18.70;99.90
5415;DHT22;2730;51.512;7.504;2022-10-15T15:01:18;18.70;99.90
5415;DHT22;2730;51.512;7.504;2022-10-15T15:03:47;18.70;99.90
5415;DHT22;2730;51.512;7.504;2022-10-15T15:06:16;18.80;99.90
5415;DHT22;2730;51.512;7.504;2022-10-15T15:08:43;18.80;99.90
5415;DHT22;2730;51.512;7.504;2022-10-15T15:11:12;18.90;99.90
5415;DHT22;2730;51.512;7.504;2022-10-15T15:13:41;18.80;99.90
5415;DHT22;2730;51.512;7.504;2022-10-15T15:16:11;18.70;99.90
5415;DHT22;2730;51.512;7.504;2022-10-15T15:18:38;18.70;99.90
5415;DHT22;2730;51.512;7.504;2022-10-15T15:21:10;18.60;99.90
5415;DHT22;2730;51.512;7.504;2022-10-15T15:23:39;18.60;99.90
5415;DHT22;2730;51.512;7.504;2022-10-15T15:26:06;18.50;99.90
5415;DHT22;2730;51.512;7.504;2022-10-15T15:28:33;18.50;99.90
5415;DHT22;2730;51.512;7.504;2022-10-15T15:31:01;18.40;99.90
5415;DHT22;2730;51.512;7.504;2022-10-15T15:33:30;18.40;99.90
5415;DHT22;2730;51.512;7.504;2022-10-15T15:36:00;18.40;99.90
5415;DHT22;2730;51.512;7.504;2022-10-15T15:38:27;18.40;99.90
5415;DHT22;2730;51.512;7.504;2022-10-15T15:41:00;18.40;99.90
5415;DHT22;2730;51.512;7.504;2022-10-15T15:43:28;18.20;99.90
5415;DHT22;2730;51.512;7.504;2022-10-15T15:45:55;18.20;99.90
5415;DHT22;2730;51.512;7.504;2022-10-15T15:48:21;18.20;99.90
5415;DHT22;2730;51.512;7.504;2022-10-15T15:50:48;18.10;99.90
5415;DHT22;2730;51.512;7.504;2022-10-15T15:53:15;18.00;99.90
5415;DHT22;2730;51.512;7.504;2022-10-15T15:55:42;17.80;99.90
5415;DHT22;2730;51.512;7.504;2022-10-15T15:58:10;17.80;99.90
5415;DHT22;2730;51.512;7.504;2022-10-15T16:00:37;17.60;99.90
5415;DHT22;2730;51.512;7.504;2022-10-15T16:03:03;17.50;99.90
5415;DHT22;2730;51.512;7.504;2022-10-15T16:05:30;17.30;99.90
5415;DHT22;2730;51.512;7.504;2022-10-15T16:07:57;17.20;99.90
5415;DHT22;2730;51.512;7.504;2022-10-15T16:10:24;17.00;99.90
5415;DHT22;2730;51.512;7.504;2022-10-15T16:12:50;17.00;99.90
5415;DHT22;2730;51.512;7.504;2022-10-15T16:15:18;16.90;99.90
5415;DHT22;2730;51.512;7.504;2022-10-15T16:17:45;16.90;99.90
5415;DHT22;2730;51.512;7.504;2022-10-15T16:20:12;16.90;99.90
5415;DHT22;2730;51.512;7.504;2022-10-15T16:22:39;16.90;99.90
5415;DHT22;2730;51.512;7.504;2022-10-15T16:25:07;16.90;99.90
5415;DHT22;2730;51.512;7.504;2022-10-15T16:27:34;16.90;99.90
5415;DHT22;2730;51.512;7.504;2022-10-15T16:30:02;16.90;99.90
5415;DHT22;2730;51.512;7.504;2022-10-15T16:32:31;16.90;99.90
5415;DHT22;2730;51.512;7.504;2022-10-15T16:34:57;16.90;99.90
5415;DHT22;2730;51.512;7.504;2022-10-15T16:37:24;16.80;99.90
5415;DHT22;2730;51.512;7.504;2022-10-15T16:39:51;16.90;99.90
5415;DHT22;2730;51.512;7.504;2022-10-15T16:42:18;16.90;99.90
5415;DHT22;2730;51.512;7.504;2022-10-15T16:44:44;16.90;99.90
5415;DHT22;2730;51.512;7.504;2022-10-15T16:47:11;16.80;99.90
5415;DHT22;2730;51.512;7.504;2022-10-15T16:49:39;16.80;99.90
5415;DHT22;2730;51.512;7.504;2022-10-15T16:52:06;16.70;99.90
5415;DHT22;2730;51.512;7.504;2022-10-15T16:54:33;16.70;99.90
5415;DHT22;2730;51.512;7.504;2022-10-15T16:57:00;16.60;99.90
5415;DHT22;2730;51.512;7.504;2022-10-15T16:59:27;16.60;99.90
5415;DHT22;2730;51.512;7.504;2022-10-15T17:01:54;16.50;99.90
5415;DHT22;2730;51.512;7.504;2022-10-15T17:04:21;16.60;99.90
5415;DHT22;2730;51.512;7.504;2022-10-15T17:06:49;16.60;99.90
5415;DHT22;2730;51.512;7.504;2022-10-15T17:09:16;16.60;99.90
5415;DHT22;2730;51.512;7.504;2022-10-15T17:11:43;16.60;99.90
5415;DHT22;2730;51.512;7.504;2022-10-15T17:14:13;16.70;99.90
5415;DHT22;2730;51.512;7.504;2022-10-15T17:16:41;16.70;99.90
5415;DHT22;2730;51.512;7.504;2022-10-15T17:19:09;16.70;99.90
5415;DHT22;2730;51.512;7.504;2022-10-15T17:21:37;16.70;99.90
5415;DHT22;2730;51.512;7.504;2022-10-15T17:24:08;16.70;99.90
5415;DHT22;2730;51.512;7.504;2022-10-15T17:26:36;16.70;99.90
5415;DHT22;2730;51.512;7.504;2022-10-15T17:29:06;16.60;99.90
5415;DHT22;2730;51.512;7.504;2022-10-15T17:31:33;16.50;99.90
5415;DHT22;2730;51.512;7.504;2022-10-15T17:34:01;16.30;99.90
5415;DHT22;2730;51.512;7.504;2022-10-15T17:36:29;16.30;99.90
5415;DHT22;2730;51.512;7.504;2022-10-15T17:38:57;16.20;99.90
5415;DHT22;2730;51.512;7.504;2022-10-15T17:41:27;16.20;99.90
5415;DHT22;2730;51.512;7.504;2022-10-15T17:43:55;16.20;99.90
5415;DHT22;2730;51.512;7.504;2022-10-15T17:46:23;16.10;99.90
5415;DHT22;2730;51.512;7.504;2022-10-15T17:48:51;16.10;99.90
5415;DHT22;2730;51.512;7.504;2022-10-15T17:51:20;16.00;99.90
5415;DHT22;2730;51.512;7.504;2022-10-15T17:53:47;16.00;99.90
5415;DHT22;2730;51.512;7.504;2022-10-15T17:56:18;15.90;99.90
5415;DHT22;2730;51.512;7.504;2022-10-15T17:58:47;15.90;99.90
5415;DHT22;2730;51.512;7.504;2022-10-15T18:01:15;15.80;99.90
5415;DHT22;2730;51.512;7.504;2022-10-15T18:03:42;15.90;99.90
5415;DHT22;2730;51.512;7.504;2022-10-15T18:06:11;15.80;99.90
5415;DHT22;2730;51.512;7.504;2022-10-15T18:08:37;15.80;99.90
5415;DHT22;2730;51.512;7.504;2022-10-15T18:11:06;15.80;99.90
5415;DHT22;2730;51.512;7.504;2022-10-15T18:13:33;15.80;99.90
5415;DHT22;2730;51.512;7.504;2022-10-15T18:16:01;15.80;99.90
5415;DHT22;2730;51.512;7.504;2022-10-15T18:18:28;15.70;99.90
5415;DHT22;2730;51.512;7.504;2022-10-15T18:20:57;15.70;99.90
5415;DHT22;2730;51.512;7.504;2022-10-15T18:23:24;15.70;99.90
5415;DHT22;2730;51.512;7.504;2022-10-15T18:25:59;15.60;99.90
5415;DHT22;2730;51.512;7.504;2022-10-15T18:28:27;15.50;99.90
5415;DHT22;2730;51.512;7.504;2022-10-15T18:30:53;15.50;99.90
5415;DHT22;2730;51.512;7.504;2022-10-15T18:33:21;15.40;99.90
5415;DHT22;2730;51.512;7.504;2022-10-15T18:35:48;15.40;99.90
5415;DHT22;2730;51.512;7.504;2022-10-15T18:38:16;15.30;99.90
5415;DHT22;2730;51.512;7.504;2022-10-15T18:40:43;15.30;99.90
5415;DHT22;2730;51.512;7.504;2022-10-15T18:43:10;15.20;99.90
5415;DHT22;2730;51.512;7.504;2022-10-15T18:45:37;15.20;99.90
5415;DHT22;2730;51.512;7.504;2022-10-15T18:48:04;15.20;99.90
5415;DHT22;2730;51.512;7.504;2022-10-15T18:50:32;15.20;99.90
5415;DHT22;2730;51.512;7.504;2022-10-15T18:53:00;15.20;99.90
5415;DHT22;2730;51.512;7.504;2022-10-15T18:55:27;15.20;99.90
5415;DHT22;2730;51.512;7.504;2022-10-15T18:57:54;15.20;99.90
5415;DHT22;2730;51.512;7.504;2022-10-15T19:00:21;15.20;99.90
5415;DHT22;2730;51.512;7.504;2022-10-15T19:02:47;15.20;99.90
5415;DHT22;2730;51.512;7.504;2022-10-15T19:05:14;15.20;99.90
5415;DHT22;2730;51.512;7.504;2022-10-15T19:07:42;15.20;99.90
5415;DHT22;2730;51.512;7.504;2022-10-15T19:10:09;15.10;99.90
5415;DHT22;2730;51.512;7.504;2022-10-15T19:12:36;15.00;99.90
5415;DHT22;2730;51.512;7.504;2022-10-15T19:15:04;14.90;99.90
5415;DHT22;2730;51.512;7.504;2022-10-15T19:17:31;14.80;99.90
5415;DHT22;2730;51.512;7.504;2022-10-15T19:19:58;14.70;99.90
5415;DHT22;2730;51.512;7.504;2022-10-15T19:22:25;14.70;99.90
5415;DHT22;2730;51.512;7.504;2022-10-15T19:24:54;14.60;99.90
5415;DHT22;2730;51.512;7.504;2022-10-15T19:27:20;14.60;99.90
5415;DHT22;2730;51.512;7.504;2022-10-15T19:29:47;14.50;99.90
5415;DHT22;2730;51.512;7.504;2022-10-15T19:32:14;14.50;99.90
5415;DHT22;2730;51.512;7.504;2022-10-15T19:34:41;14.40;99.90
5415;DHT22;2730;51.512;7.504;2022-10-15T19:37:08;14.40;99.90
5415;DHT22;2730;51.512;7.504;2022-10-15T19:39:34;14.40;99.90
5415;DHT22;2730;51.512;7.504;2022-10-15T19:42:03;14.40;99.90
5415;DHT22;2730;51.512;7.504;2022-10-15T19:44:30;14.40;99.90
5415;DHT22;2730;51.512;7.504;2022-10-15T19:46:56;14.30;99.90
5415;DHT22;2730;51.512;7.504;2022-10-15T19:49:23;14.30;99.90
5415;DHT22;2730;51.512;7.504;2022-10-15T19:51:50;14.30;99.90
5415;DHT22;2730;51.512;7.504;2022-10-15T19:54:17;14.30;99.90
5415;DHT22;2730;51.512;7.504;2022-10-15T19:56:44;14.20;99.90
5415;DHT22;2730;51.512;7.504;2022-10-15T19:59:13;14.20;99.90
5415;DHT22;2730;51.512;7.504;2022-10-15T20:01:41;14.20;99.90
5415;DHT22;2730;51.512;7.504;2022-10-15T20:04:08;14.20;99.90
5415;DHT22;2730;51.512;7.504;2022-10-15T20:06:36;14.20;99.90
5415;DHT22;2730;51.512;7.504;2022-10-15T20:09:03;14.20;99.90
5415;DHT22;2730;51.512;7.504;2022-10-15T20:11:31;14.20;99.90
5415;DHT22;2730;51.512;7.504;2022-10-15T20:13:58;14.20;99.90
5415;DHT22;2730;51.512;7.504;2022-10-15T20:16:26;14.10;99.90
5415;DHT22;2730;51.512;7.504;2022-10-15T20:18:53;14.20;99.90
5415;DHT22;2730;51.512;7.504;2022-10-15T20:21:21;14.20;99.90
5415;DHT22;2730;51.512;7.504;2022-10-15T20:23:47;14.10;99.90
5415;DHT22;2730;51.512;7.504;2022-10-15T20:26:15;14.10;99.90
5415;DHT22;2730;51.512;7.504;2022-10-15T20:28:43;14.10;99.90
5415;DHT22;2730;51.512;7.504;2022-10-15T20:31:12;14.10;99.90
5415;DHT22;2730;51.512;7.504;2022-10-15T20:33:43;14.00;99.90
5415;DHT22;2730;51.512;7.504;2022-10-15T20:36:12;14.00;99.90
5415;DHT22;2730;51.512;7.504;2022-10-15T20:38:39;14.00;99.90
5415;DHT22;2730;51.512;7.504;2022-10-15T20:41:08;14.10;99.90
5415;DHT22;2730;51.512;7.504;2022-10-15T20:43:35;14.00;99.90
5415;DHT22;2730;51.512;7.504;2022-10-15T20:46:02;14.00;99.90
5415;DHT22;2730;51.512;7.504;2022-10-15T20:48:29;14.00;99.90
5415;DHT22;2730;51.512;7.504;2022-10-15T20:50:58;13.90;99.90
5415;DHT22;2730;51.512;7.504;2022-10-15T20:53:26;13.90;99.90
5415;DHT22;2730;51.512;7.504;2022-10-15T20:55:54;13.80;99.90
5415;DHT22;2730;51.512;7.504;2022-10-15T20:58:21;13.80;99.90
5415;DHT22;2730;51.512;7.504;2022-10-15T21:00:48;13.90;99.90
5415;DHT22;2730;51.512;7.504;2022-10-15T21:03:14;13.90;99.90
5415;DHT22;2730;51.512;7.504;2022-10-15T21:05:41;13.80;99.90
5415;DHT22;2730;51.512;7.504;2022-10-15T21:08:09;13.80;99.90
5415;DHT22;2730;51.512;7.504;2022-10-15T21:10:36;13.80;99.90
5415;DHT22;2730;51.512;7.504;2022-10-15T21:13:03;13.80;99.90
5415;DHT22;2730;51.512;7.504;2022-10-15T21:15:30;13.80;99.90
5415;DHT22;2730;51.512;7.504;2022-10-15T21:17:57;13.80;99.90
5415;DHT22;2730;51.512;7.504;2022-10-15T21:20:24;13.80;99.90
5415;DHT22;2730;51.512;7.504;2022-10-15T21:22:51;13.80;99.90
5415;DHT22;2730;51.512;7.504;2022-10-15T21:25:19;13.80;99.90
5415;DHT22;2730;51.512;7.504;2022-10-15T21:27:46;13.70;99.90
5415;DHT22;2730;51.512;7.504;2022-10-15T21:30:13;13.70;99.90